ADDS METAR Data

Data at: 0500 UTC 20 Apr 2018

METAR for:KPSM (Portsmouth Intl, NH, US)
Text:KPSM 200456Z 28007KT 10SM BKN050 OVC120 04/M02 A2979 RMK AO2A SLP091 T00371021 400690009
Temperature: 3.7°C ( 39°F)
Dewpoint: -2.1°C ( 28°F) [RH = 66%]
Pressure (altimeter):29.79 inches Hg (1008.9 mb) [Sea level pressure: 1009.1 mb]
Winds:from the W (280 degrees) at 8 MPH (7 knots; 3.6 m/s)
Visibility:10 or more sm (16+ km)
Ceiling:5000 feet AGL
Clouds: broken clouds at 5000 feet AGL, overcast cloud deck at 12000 feet AGL